Αρχική σελίδα
METAR-TAF:

METAR-TAF

Αεροδρόμια :

Kosrae, Μικρονησία

γεωγραφικό πλάτος: 05-21N, γεωγραφικό μήκος: 162-57E, υψόμετρο: 3 μ

Παρών καιρός

Η αναφορά έγινε 4 ώρες και 13 λεπτά πριν, στις 05:50 UTC
Άνεμος 7 kt από BA
Θερμοκρασία 31°C
Υγρασία 79%
Πίεση 1007 hPa
Ορατότητα: 16.1 χλμ
Αρκετά νέφη σε ύψος 2100 πόδια
Αρκετά νέφη σε ύψος 30000 πόδια

METAR: PTSA 260550Z 05007KT 10SM BKN021 BKN300 31/27 A2973 RMK LAST

Χρόνος: 21:03 (10:03 UTC)

Πρόγνωση Καιρού

Η αναφορά έγινε 4 ώρες και 25 λεπτά πριν, στις 05:38 UTC
Η πρόγνωση ισχύει από τις 26 στις 06 UTC έως τις 27 στις 06 UTC
Άνεμος 11 kt από Α/BA
Ορατότητα: 10 χλμ
Διάσπαρτα νέφη σε ύψος 2000 πόδια
Αρκετά νέφη σε ύψος 12000 πόδια
Όμβροι σε κοντινή απόσταση,

TAF: PTSA 260538Z 2606/2706 06011KT P6SM VCSH SCT020 BKN120

Μετεωρολογικές αναφορές και προγνώσεις για περισσότερα από 4000 αεροδρόμια (δελτία METAR και TAF).

Οι διαθέσιμοι σταθμοί απεικονίζονται στο χάρτη με κίτρινες και κόκκινες κουκκίδες.

Μετακινήστε το ποντίκι πάνω από τις κουκκίδες για να δείτε το όνομα του σταθμού.

Στη συνέχεια, κάντε κλικ για να δείτε τις μετεωρολογικές αναφορές και τις προγνώσεις καιρού.

Για να αλλάξετε το χάρτη: κάντε κλικ στα πράσινα κουμπιά με τον μαύρο σταυρό για να ζουμάρετε, στο πράσινο κουμπί με την παύλα για να αφαιρέσετε το ζουμ ή στα πράσινα βέλη για να αντιπαραβάλλετε χάρτες.


METAR-TAF: